Time;durP1;ratioP1;P1;durP2;ratioP2;P2;SDS_P1;SDS_P2;PMS_P1;PMS_P2;Temp;Humidity;BMP_temperature;BMP_pressure;BME280_temperature;BME280_humidity;BME280_pressure;Samples;Min_cycle;Max_cycle;Signal;HPM_P1;HPM_P2
2021/08/03 00:02:23;;;;;;;4.90;2.47;;;;;;;12.83;99.20;97903.91;5025236;28;20040;-60
2021/08/03 00:04:51;;;;;;;3.47;2.58;;;;;;;13.28;96.80;97893.69;5025982;28;20032;-59
2021/08/03 00:07:21;;;;;;;3.22;2.38;;;;;;;13.29;96.67;97891.00;5026805;28;20095;-60
2021/08/03 00:09:47;;;;;;;5.80;2.60;;;;;;;13.06;98.18;97896.63;5026713;28;20036;-60
2021/08/03 00:12:16;;;;;;;4.85;2.42;;;;;;;13.02;99.09;97897.72;5025423;28;20068;-61
2021/08/03 00:14:49;;;;;;;4.30;2.40;;;;;;;13.20;98.58;97907.22;5027973;28;20660;-60
2021/08/03 00:17:21;;;;;;;3.65;2.50;;;;;;;13.53;96.37;97903.75;5024782;28;20136;-59
2021/08/03 00:19:46;;;;;;;3.75;2.63;;;;;;;13.21;97.34;97901.03;5027204;28;20384;-61
2021/08/03 00:22:12;;;;;;;5.53;2.50;;;;;;;13.16;97.95;97897.84;5028304;28;20052;-59
2021/08/03 00:24:38;;;;;;;3.40;2.40;;;;;;;13.42;97.45;97906.09;5025831;28;20075;-60
2021/08/03 00:27:05;;;;;;;6.72;2.40;;;;;;;13.67;96.21;97906.47;5025943;28;20128;-59
2021/08/03 00:29:31;;;;;;;2.85;2.05;;;;;;;13.57;96.17;97910.50;5026805;28;20120;-61
2021/08/03 00:31:56;;;;;;;4.03;2.53;;;;;;;13.16;97.02;97900.47;5024630;28;20132;-59
2021/08/03 00:34:22;;;;;;;3.25;2.10;;;;;;;13.52;95.96;97902.03;5026195;28;20072;-60
2021/08/03 00:36:47;;;;;;;4.75;2.80;;;;;;;13.11;96.91;97908.53;5027762;28;20736;-60
2021/08/03 00:39:13;;;;;;;5.00;2.55;;;;;;;13.02;97.35;97902.94;5025502;28;20442;-61
2021/08/03 00:41:44;;;;;;;5.47;2.60;;;;;;;12.76;98.44;97892.06;5024107;28;20037;-60
2021/08/03 00:44:09;;;;;;;5.30;2.80;;;;;;;12.45;100.00;97891.00;5026561;28;20022;-61
2021/08/03 00:46:35;;;;;;;4.63;2.72;;;;;;;12.69;99.92;97893.31;5026369;28;20045;-60
2021/08/03 00:49:01;;;;;;;4.57;2.88;;;;;;;12.32;100.00;97895.16;5025997;28;20033;-61
2021/08/03 00:51:26;;;;;;;4.88;2.90;;;;;;;12.43;100.00;97892.84;5026863;28;20039;-60
2021/08/03 00:53:51;;;;;;;4.47;2.60;;;;;;;12.83;98.38;97893.44;5025213;28;20657;-60
2021/08/03 00:56:17;;;;;;;3.58;2.60;;;;;;;12.78;98.17;97887.59;5023934;28;20037;-62
2021/08/03 00:58:42;;;;;;;4.78;2.60;;;;;;;12.49;100.00;97889.91;5025882;28;20061;-60
2021/08/03 01:01:08;;;;;;;6.47;3.10;;;;;;;12.55;100.00;97883.53;5026165;28;20040;-59
2021/08/03 01:03:33;;;;;;;4.47;3.03;;;;;;;12.49;100.00;97889.91;5026594;28;20025;-60
2021/08/03 01:06:08;;;;;;;5.38;2.97;;;;;;;12.31;100.00;97890.84;5026407;28;20036;-59
2021/08/03 01:08:52;;;;;;;4.43;3.00;;;;;;;12.50;100.00;97890.78;5026281;28;20435;-60
2021/08/03 01:11:36;;;;;;;4.68;3.17;;;;;;;12.53;100.00;97885.38;5030179;28;20060;-60
2021/08/03 01:14:14;;;;;;;4.07;2.83;;;;;;;12.70;100.00;97890.59;5031010;28;20041;-59
2021/08/03 01:17:08;;;;;;;5.88;2.97;;;;;;;12.80;100.00;97890.97;5032277;28;20082;-60
2021/08/03 01:20:00;;;;;;;3.92;2.38;;;;;;;12.91;98.97;97896.50;5030203;28;20032;-60
2021/08/03 01:22:50;;;;;;;4.20;2.53;;;;;;;12.82;98.81;97894.34;5029836;28;20041;-63
2021/08/03 01:25:24;;;;;;;5.30;2.80;;;;;;;12.50;100.00;97891.63;5029280;28;20040;-60
2021/08/03 01:28:00;;;;;;;5.35;2.80;;;;;;;12.46;100.00;97887.47;5032053;28;20475;-60
2021/08/03 01:30:25;;;;;;;6.78;3.10;;;;;;;12.27;100.00;97884.06;5030745;28;20048;-60
2021/08/03 01:32:53;;;;;;;6.40;2.63;;;;;;;12.34;100.00;97885.47;5030700;28;20024;-59
2021/08/03 01:35:22;;;;;;;5.03;2.70;;;;;;;12.21;100.00;97887.00;5030973;28;20498;-60
2021/08/03 01:37:48;;;;;;;6.22;2.90;;;;;;;12.18;100.00;97889.75;5032051;28;20028;-60
2021/08/03 01:40:14;;;;;;;3.70;2.38;;;;;;;12.44;100.00;97891.94;5029494;28;20029;-60
2021/08/03 01:42:41;;;;;;;3.90;2.60;;;;;;;12.47;98.79;97891.75;5028386;28;20113;-60
2021/08/03 01:45:09;;;;;;;4.72;2.90;;;;;;;12.29;100.00;97887.47;5032006;28;20020;-60
2021/08/03 01:47:34;;;;;;;4.85;2.95;;;;;;;12.28;100.00;97891.00;5031692;28;20083;-61
2021/08/03 01:50:01;;;;;;;5.40;2.70;;;;;;;12.71;98.54;97888.84;5030868;28;20032;-60
2021/08/03 01:52:28;;;;;;;4.78;2.92;;;;;;;12.50;99.26;97886.38;5029536;28;20041;-60
2021/08/03 01:54:55;;;;;;;5.65;2.78;;;;;;;12.31;100.00;97889.09;5029853;28;20035;-60
2021/08/03 01:57:22;;;;;;;5.55;2.53;;;;;;;12.63;98.59;97885.78;5030529;28;20037;-60
2021/08/03 01:59:49;;;;;;;4.32;2.80;;;;;;;12.25;100.00;97888.53;5029699;28;20045;-61
2021/08/03 02:02:16;;;;;;;4.72;3.20;;;;;;;12.06;100.00;97881.59;5030862;28;20049;-59
2021/08/03 02:04:42;;;;;;;4.18;2.90;;;;;;;12.28;100.00;97885.78;5032007;28;20103;-60
2021/08/03 02:07:09;;;;;;;5.10;2.60;;;;;;;12.41;99.64;97886.84;5031349;28;20131;-61
2021/08/03 02:09:35;;;;;;;4.25;2.33;;;;;;;12.39;99.63;97878.25;5028153;28;20051;-60
2021/08/03 02:12:01;;;;;;;4.45;2.38;;;;;;;12.57;97.27;97884.28;5029198;28;20049;-59
2021/08/03 02:14:27;;;;;;;4.15;2.60;;;;;;;12.05;98.52;97879.06;5028460;28;20025;-61
2021/08/03 02:16:53;;;;;;;4.80;2.40;;;;;;;12.03;100.00;97880.91;5028001;28;20021;-61
2021/08/03 02:19:18;;;;;;;4.35;2.80;;;;;;;12.13;98.47;97879.50;5028720;28;20582;-59
2021/08/03 02:21:45;;;;;;;3.85;2.60;;;;;;;11.79;100.00;97877.69;5026198;28;20049;-61
2021/08/03 02:24:11;;;;;;;4.43;2.70;;;;;;;11.71;100.00;97868.44;5029693;28;20544;-61
2021/08/03 02:26:36;;;;;;;4.28;2.60;;;;;;;11.94;99.24;97876.97;5029649;28;20044;-62
2021/08/03 02:29:03;;;;;;;8.07;2.85;;;;;;;11.89;99.88;97869.31;5028338;28;20048;-61
2021/08/03 02:31:48;;;;;;;3.95;2.47;;;;;;;12.00;99.90;97881.88;5028818;28;20053;-60
2021/08/03 02:34:26;;;;;;;4.38;2.42;;;;;;;12.18;97.60;97884.53;5027551;28;20030;-59
2021/08/03 02:36:57;;;;;;;3.20;2.30;;;;;;;12.51;97.30;97880.22;5026891;28;20033;-61
2021/08/03 02:39:23;;;;;;;4.93;2.50;;;;;;;11.82;98.94;97874.91;5028786;28;20510;-59
2021/08/03 02:41:50;;;;;;;3.33;2.30;;;;;;;11.83;98.85;97879.22;5025869;28;20391;-59
2021/08/03 02:44:18;;;;;;;7.13;2.60;;;;;;;11.50;100.00;97874.66;5026163;28;20115;-61
2021/08/03 02:46:47;;;;;;;4.97;2.50;;;;;;;11.43;100.00;97870.66;5028244;28;20068;-60
2021/08/03 02:49:16;;;;;;;3.60;2.30;;;;;;;11.62;100.00;97870.66;5028018;28;20078;-59
2021/08/03 02:51:42;;;;;;;4.38;2.30;;;;;;;11.69;99.16;97878.13;5027088;28;20041;-60
2021/08/03 02:54:24;;;;;;;3.50;2.40;;;;;;;11.37;100.00;97875.22;5027154;28;20033;-60
2021/08/03 02:56:53;;;;;;;7.13;2.60;;;;;;;11.35;100.00;97869.22;5028064;28;20083;-61
2021/08/03 02:59:22;;;;;;;3.92;2.40;;;;;;;11.41;100.00;97872.50;5028678;28;20048;-61
2021/08/03 03:01:48;;;;;;;5.68;2.42;;;;;;;11.51;100.00;97873.75;5026072;28;20506;-62
2021/08/03 03:04:34;;;;;;;3.80;2.10;;;;;;;11.72;99.02;97867.50;5028379;28;20040;-61
2021/08/03 03:07:25;;;;;;;4.95;2.60;;;;;;;11.78;98.36;97871.59;5028305;28;20076;-61
2021/08/03 03:09:52;;;;;;;4.70;2.63;;;;;;;11.85;99.11;97877.38;5025692;28;20044;-60
2021/08/03 03:12:18;;;;;;;5.97;2.70;;;;;;;11.77;98.84;97873.38;5043369;28;20040;-60
2021/08/03 03:14:45;;;;;;;6.43;2.60;;;;;;;11.60;100.00;97883.78;5027889;28;20028;-58
2021/08/03 03:17:13;;;;;;;8.10;2.60;;;;;;;11.45;100.00;97877.50;5026875;28;20102;-59
2021/08/03 03:19:40;;;;;;;5.95;2.50;;;;;;;11.51;100.00;97884.22;5025498;28;20021;-59
2021/08/03 03:22:07;;;;;;;7.38;2.83;;;;;;;11.46;100.00;97875.72;5027651;28;20041;-59
2021/08/03 03:24:35;;;;;;;5.32;2.58;;;;;;;11.46;100.00;97880.97;5028543;28;20033;-62
2021/08/03 03:27:03;;;;;;;3.28;2.30;;;;;;;11.87;100.00;97879.00;5027054;28;20041;-60
2021/08/03 03:29:34;;;;;;;3.75;2.72;;;;;;;11.55;100.00;97880.53;5027135;28;20035;-59
2021/08/03 03:32:00;;;;;;;5.72;2.50;;;;;;;11.45;100.00;97884.47;5026356;28;20049;-59
2021/08/03 03:34:27;;;;;;;6.22;2.72;;;;;;;11.43;100.00;97886.31;5028243;28;20037;-59
2021/08/03 03:36:54;;;;;;;6.53;2.60;;;;;;;11.40;100.00;97881.25;5027340;28;20063;-60
2021/08/03 03:39:20;;;;;;;3.75;2.70;;;;;;;11.67;100.00;97879.09;5026218;28;20025;-59
2021/08/03 03:41:49;;;;;;;3.28;2.55;;;;;;;11.45;100.00;97876.63;5027396;28;20046;-60
2021/08/03 03:44:16;;;;;;;4.13;2.50;;;;;;;11.84;99.41;97871.31;5028270;28;20029;-59
2021/08/03 03:46:59;;;;;;;4.03;2.70;;;;;;;11.71;99.32;97868.44;5026065;28;20115;-60
2021/08/03 03:49:30;;;;;;;7.15;3.05;;;;;;;11.57;100.00;97868.25;5027824;28;20113;-59
2021/08/03 03:52:01;;;;;;;4.22;2.80;;;;;;;11.51;100.00;97873.75;5026610;28;20567;-59
2021/08/03 03:54:30;;;;;;;5.63;2.90;;;;;;;11.50;100.00;97869.44;5028110;28;20029;-60
2021/08/03 03:57:02;;;;;;;6.93;3.00;;;;;;;11.55;99.86;97870.06;5027355;28;20863;-61
2021/08/03 03:59:27;;;;;;;5.63;2.67;;;;;;;11.75;99.69;97863.91;5028594;28;20037;-61
2021/08/03 04:02:01;;;;;;;3.92;2.65;;;;;;;11.36;100.00;97870.94;5024969;28;20043;-62
2021/08/03 04:04:29;;;;;;;4.05;2.80;;;;;;;11.82;99.96;97860.09;5027419;28;20025;-61
2021/08/03 04:06:54;;;;;;;4.10;2.22;;;;;;;12.35;96.92;97860.97;5025788;28;20087;-60
2021/08/03 04:09:21;;;;;;;5.65;2.70;;;;;;;12.16;95.94;97863.69;5024616;28;20029;-59
2021/08/03 04:11:48;;;;;;;3.55;2.47;;;;;;;12.22;98.58;97855.56;5026248;28;20897;-60
2021/08/03 04:14:16;;;;;;;5.40;2.78;;;;;;;12.25;97.34;97859.78;5026848;28;20136;-60
2021/08/03 04:16:42;;;;;;;6.90;2.60;;;;;;;12.00;97.10;97860.97;5024865;28;20040;-60
2021/08/03 04:19:07;;;;;;;5.25;2.13;;;;;;;12.77;96.20;97867.56;5026942;28;20106;-59
2021/08/03 04:21:35;;;;;;;3.72;2.40;;;;;;;12.93;92.56;97857.97;5026158;28;20586;-59
2021/08/03 04:24:00;;;;;;;4.05;2.42;;;;;;;12.67;92.41;97861.13;5026467;28;20055;-60
2021/08/03 04:26:26;;;;;;;4.38;2.88;;;;;;;12.60;94.20;97862.38;5025205;28;20114;-60
2021/08/03 04:28:51;;;;;;;6.68;2.42;;;;;;;12.59;95.22;97864.16;5026784;28;20029;-61
2021/08/03 04:31:16;;;;;;;4.30;3.03;;;;;;;12.34;95.85;97865.38;5025824;28;20034;-59
2021/08/03 04:33:42;;;;;;;5.63;2.67;;;;;;;12.63;94.26;97862.22;5026109;28;20029;-60
2021/08/03 04:36:07;;;;;;;7.07;2.70;;;;;;;12.48;94.97;97862.09;5025928;28;20121;-61
2021/08/03 04:38:32;;;;;;;5.78;2.50;;;;;;;12.48;96.07;97867.31;5026460;28;20036;-59
2021/08/03 04:40:58;;;;;;;6.32;2.65;;;;;;;12.59;94.98;97863.28;5025964;28;20041;-59
2021/08/03 04:43:23;;;;;;;4.75;3.08;;;;;;;12.82;93.34;97868.19;5025132;28;20021;-59
2021/08/03 04:45:48;;;;;;;4.63;2.97;;;;;;;12.87;92.51;97866.16;5033250;28;20646;-60
2021/08/03 04:48:14;;;;;;;5.97;2.90;;;;;;;12.51;94.39;97871.53;5030011;28;20123;-60
2021/08/03 04:50:39;;;;;;;3.33;2.03;;;;;;;13.08;94.02;97871.19;5028980;28;20693;-60
2021/08/03 04:53:05;;;;;;;7.20;2.72;;;;;;;12.89;92.57;97868.72;5028476;28;20029;-61
2021/08/03 04:55:30;;;;;;;5.65;3.03;;;;;;;12.54;94.89;97869.59;5029813;28;20191;-59
2021/08/03 04:57:55;;;;;;;5.05;3.00;;;;;;;12.55;96.23;97867.81;5030110;28;20024;-60
2021/08/03 05:00:21;;;;;;;7.38;3.22;;;;;;;12.49;95.89;97870.75;5030640;28;20029;-59
2021/08/03 05:02:46;;;;;;;4.93;2.67;;;;;;;13.07;93.52;97859.88;5017952;28;20040;-60
2021/08/03 05:05:12;;;;;;;6.05;2.95;;;;;;;13.15;92.80;97864.72;5034170;28;20049;-62
2021/08/03 05:07:38;;;;;;;5.75;2.70;;;;;;;13.59;90.42;97871.94;5032138;28;20807;-61
2021/08/03 05:10:05;;;;;;;4.18;2.50;;;;;;;13.52;91.05;97869.75;5031124;28;20025;-59
2021/08/03 05:12:32;;;;;;;6.05;2.63;;;;;;;13.93;88.41;97864.84;5034555;28;20043;-60
2021/08/03 05:15:03;;;;;;;5.05;2.78;;;;;;;13.98;88.21;97860.16;5031272;28;20025;-59
2021/08/03 05:17:30;;;;;;;5.95;2.85;;;;;;;13.66;89.25;97857.56;5031860;28;20120;-60
2021/08/03 05:19:55;;;;;;;4.50;2.88;;;;;;;13.83;90.59;97855.78;5034263;28;20044;-59
2021/08/03 05:22:21;;;;;;;4.45;2.63;;;;;;;14.12;88.74;97853.28;5032309;28;20033;-59
2021/08/03 05:24:46;;;;;;;5.93;2.95;;;;;;;14.24;87.28;97857.81;5030232;28;20049;-60
2021/08/03 05:27:12;;;;;;;6.97;2.42;;;;;;;14.32;88.13;97855.59;5031162;28;20033;-59
2021/08/03 05:29:37;;;;;;;4.07;2.70;;;;;;;14.56;88.79;97858.56;5032114;28;20057;-61
2021/08/03 05:32:02;;;;;;;3.47;2.40;;;;;;;14.27;90.99;97858.47;5027742;28;20139;-61
2021/08/03 05:34:28;;;;;;;6.22;2.83;;;;;;;15.05;85.38;97849.50;5030917;28;20390;-61
2021/08/03 05:36:54;;;;;;;6.47;2.55;;;;;;;14.55;88.21;97854.22;5032815;28;20044;-60
2021/08/03 05:39:19;;;;;;;4.22;2.60;;;;;;;14.87;87.05;97848.00;5031298;28;20057;-61
2021/08/03 05:41:45;;;;;;;5.20;2.60;;;;;;;15.14;84.99;97848.09;5046317;28;20075;-60
2021/08/03 05:44:10;;;;;;;4.97;2.60;;;;;;;16.08;81.13;97847.41;5028980;28;20021;-60
2021/08/03 05:46:35;;;;;;;5.95;2.70;;;;;;;16.16;81.37;97845.13;5029884;28;20045;-59
2021/08/03 05:49:02;;;;;;;4.97;2.70;;;;;;;16.08;80.27;97844.78;5029228;28;20132;-60
2021/08/03 05:51:27;;;;;;;4.97;2.60;;;;;;;16.81;78.67;97838.13;5028195;28;20439;-61
2021/08/03 05:53:53;;;;;;;3.95;2.58;;;;;;;17.02;77.52;97836.69;5030361;28;20034;-61
2021/08/03 05:56:18;;;;;;;4.97;2.33;;;;;;;19.16;73.27;97838.53;5026436;28;20401;-60
2021/08/03 05:58:43;;;;;;;3.88;2.30;;;;;;;19.54;70.45;97837.31;5028606;28;20118;-61
2021/08/03 06:01:08;;;;;;;6.82;2.17;;;;;;;20.92;66.62;97835.63;5028194;28;20187;-61
2021/08/03 06:03:34;;;;;;;6.05;2.40;;;;;;;22.62;61.00;97832.03;5029241;28;20025;-59
2021/08/03 06:05:59;;;;;;;6.18;2.20;;;;;;;24.71;56.38;97838.41;5030527;28;20423;-60
2021/08/03 06:08:29;;;;;;;3.30;2.20;;;;;;;25.23;53.81;97837.50;5031299;28;20041;-61
2021/08/03 06:10:55;;;;;;;5.30;2.20;;;;;;;25.49;51.67;97829.47;5030421;28;20183;-61
2021/08/03 06:13:23;;;;;;;5.72;2.22;;;;;;;26.06;49.08;97833.31;5029159;28;20033;-60
2021/08/03 06:15:50;;;;;;;4.78;2.05;;;;;;;27.85;46.86;97828.59;5031723;28;20763;-61
2021/08/03 06:18:22;;;;;;;4.50;2.00;;;;;;;28.04;44.85;97824.63;5028461;28;20139;-61
2021/08/03 06:20:48;;;;;;;7.85;2.10;;;;;;;27.83;45.19;97821.75;5031967;28;20231;-62
2021/08/03 06:23:15;;;;;;;4.68;2.00;;;;;;;29.06;43.65;97827.94;5028186;28;20549;-63
2021/08/03 06:25:41;;;;;;;4.32;1.92;;;;;;;28.27;43.36;97819.28;5030103;28;20029;-63
2021/08/03 06:28:07;;;;;;;4.60;2.13;;;;;;;28.57;43.72;97822.06;5032289;28;20037;-62
2021/08/03 06:30:38;;;;;;;5.82;1.90;;;;;;;28.55;43.09;97824.09;5030485;28;20037;-63
2021/08/03 06:33:05;;;;;;;3.63;1.85;;;;;;;26.49;45.99;97823.31;5030192;28;20060;-61
2021/08/03 06:35:31;;;;;;;5.45;2.78;;;;;;;29.42;42.10;97812.75;5029593;28;20045;-61
2021/08/03 06:37:57;;;;;;;5.35;1.80;;;;;;;29.20;41.27;97821.75;5031704;28;20033;-61
2021/08/03 06:40:22;;;;;;;7.65;2.88;;;;;;;29.96;41.32;97818.75;5029309;28;20037;-61
2021/08/03 06:42:59;;;;;;;4.57;2.42;;;;;;;29.17;41.62;97816.75;5029123;28;20506;-64
2021/08/03 06:45:28;;;;;;;4.88;1.70;;;;;;;28.49;42.81;97815.91;5031811;28;20025;-61
2021/08/03 06:48:00;;;;;;;3.22;1.60;;;;;;;27.15;44.73;97812.47;5031274;28;20025;-62
2021/08/03 06:50:30;;;;;;;2.80;1.60;;;;;;;27.91;42.30;97807.47;5030810;28;20036;-62
2021/08/03 06:52:56;;;;;;;6.20;1.70;;;;;;;25.66;46.92;97810.81;5030357;28;20260;-61
2021/08/03 06:55:30;;;;;;;3.10;1.70;;;;;;;26.85;44.31;97806.88;5029916;28;20032;-61
2021/08/03 06:58:03;;;;;;;3.38;2.22;;;;;;;28.09;42.99;97807.19;5031328;28;20037;-63
2021/08/03 07:00:37;;;;;;;4.60;2.15;;;;;;;27.20;43.26;97820.84;5028403;28;20036;-63
2021/08/03 07:03:04;;;;;;;2.33;1.58;;;;;;;25.77;46.38;97819.38;5030020;28;20026;-62
2021/08/03 07:05:32;;;;;;;4.10;1.80;;;;;;;26.42;45.31;97816.97;5028672;28;20041;-62
2021/08/03 07:07:58;;;;;;;3.13;1.70;;;;;;;25.86;46.49;97822.91;5029068;28;20037;-62
2021/08/03 07:10:24;;;;;;;3.05;1.90;;;;;;;24.66;50.99;97814.03;5030585;28;20407;-60
2021/08/03 07:12:52;;;;;;;3.70;1.70;;;;;;;25.18;48.61;97818.47;5027631;28;20116;-61
2021/08/03 07:15:20;;;;;;;4.47;1.70;;;;;;;25.77;47.05;97816.72;5030882;28;20029;-62
2021/08/03 07:17:47;;;;;;;8.27;1.70;;;;;;;25.19;48.47;97812.97;5029448;28;20033;-63
2021/08/03 07:20:15;;;;;;;3.22;1.60;;;;;;;27.44;43.93;97817.25;5027500;28;20024;-61
2021/08/03 07:22:41;;;;;;;2.60;1.60;;;;;;;27.53;43.35;97812.69;5029594;28;20060;-64
2021/08/03 07:25:09;;;;;;;3.58;1.60;;;;;;;27.83;43.54;97822.56;5029562;28;20029;-61
2021/08/03 07:27:35;;;;;;;2.58;1.60;;;;;;;27.74;44.04;97823.63;5028041;28;20112;-62
2021/08/03 07:30:02;;;;;;;2.58;1.63;;;;;;;28.58;42.22;97813.00;5038661;28;20061;-62
2021/08/03 07:32:27;;;;;;;3.63;1.50;;;;;;;30.93;37.08;97818.22;5027931;28;20028;-63
2021/08/03 07:34:52;;;;;;;2.80;1.67;;;;;;;32.87;33.88;97820.63;5029275;28;20025;-61
2021/08/03 07:37:18;;;;;;;3.10;1.67;;;;;;;30.43;36.39;97828.13;5031111;28;20044;-62
2021/08/03 07:39:43;;;;;;;4.82;1.65;;;;;;;30.92;36.51;97830.00;5029047;28;20066;-64
2021/08/03 07:42:09;;;;;;;3.42;1.45;;;;;;;30.58;37.73;97829.91;5030097;28;20514;-62
2021/08/03 07:44:35;;;;;;;4.03;1.50;;;;;;;29.06;40.52;97825.25;5029434;28;20122;-62
2021/08/03 07:47:01;;;;;;;3.90;1.80;;;;;;;29.56;39.28;97829.06;5026987;28;20032;-63
2021/08/03 07:49:26;;;;;;;6.47;1.58;;;;;;;27.32;43.65;97826.69;5028502;28;20078;-64
2021/08/03 07:51:52;;;;;;;5.13;1.55;;;;;;;25.96;46.16;97826.28;5028496;28;20049;-62
2021/08/03 07:54:18;;;;;;;3.50;1.55;;;;;;;26.78;45.23;97827.31;5027593;28;20637;-61
2021/08/03 07:56:43;;;;;;;3.15;1.73;;;;;;;25.63;47.82;97824.53;5028863;28;20033;-62
2021/08/03 07:59:08;;;;;;;3.38;1.58;;;;;;;26.13;46.67;97818.28;5028531;28;20082;-64
2021/08/03 08:01:34;;;;;;;3.08;1.40;;;;;;;26.35;44.21;97820.28;5028555;28;20079;-63
2021/08/03 08:03:59;;;;;;;3.40;1.40;;;;;;;25.93;46.24;97821.28;5027755;28;20112;-63
2021/08/03 08:06:25;;;;;;;3.88;1.58;;;;;;;25.57;48.57;97818.84;5029240;28;20284;-63
2021/08/03 08:08:51;;;;;;;4.80;1.50;;;;;;;25.34;48.63;97828.41;5030264;28;20033;-64
2021/08/03 08:11:16;;;;;;;3.72;1.50;;;;;;;25.13;48.87;97826.97;5030266;28;20045;-63
2021/08/03 08:13:42;;;;;;;4.55;1.65;;;;;;;25.27;49.08;97816.72;5028578;28;20033;-62
2021/08/03 08:16:07;;;;;;;2.00;1.33;;;;;;;24.96;49.09;97814.53;5030991;28;20048;-62
2021/08/03 08:18:33;;;;;;;5.30;1.48;;;;;;;24.05;50.29;97818.34;5027977;28;20025;-66
2021/08/03 08:20:59;;;;;;;3.47;1.40;;;;;;;24.88;48.74;97812.66;5030054;28;20087;-62
2021/08/03 08:23:24;;;;;;;2.90;1.50;;;;;;;25.81;47.25;97814.56;5028811;28;20147;-62
2021/08/03 08:25:49;;;;;;;2.80;1.70;;;;;;;26.46;46.35;97812.94;5028228;28;20129;-63
2021/08/03 08:28:15;;;;;;;3.05;1.70;;;;;;;26.73;45.28;97815.28;5028068;28;20583;-62
2021/08/03 08:30:40;;;;;;;2.78;1.50;;;;;;;26.46;46.42;97808.41;5028223;28;20457;-62
2021/08/03 08:33:07;;;;;;;3.60;1.40;;;;;;;29.02;42.36;97814.91;5027649;28;20036;-62
2021/08/03 08:35:33;;;;;;;3.50;1.40;;;;;;;26.74;45.24;97818.78;5028131;28;20041;-64
2021/08/03 08:37:59;;;;;;;2.60;1.40;;;;;;;25.93;46.68;97809.75;5028771;28;20086;-62
2021/08/03 08:40:24;;;;;;;2.40;1.40;;;;;;;26.38;44.92;97810.28;5026385;28;20475;-64
2021/08/03 08:42:50;;;;;;;5.75;1.60;;;;;;;26.52;45.12;97812.25;5027082;28;20440;-63
2021/08/03 08:45:16;;;;;;;3.67;1.80;;;;;;;26.47;43.98;97809.28;5028086;28;20377;-62
2021/08/03 08:47:43;;;;;;;3.28;1.80;;;;;;;24.87;46.90;97800.34;5027049;28;20056;-63
2021/08/03 08:50:09;;;;;;;3.75;1.50;;;;;;;25.07;47.49;97800.94;5026714;28;20029;-62
2021/08/03 08:52:37;;;;;;;3.58;1.50;;;;;;;24.53;49.07;97802.94;5025537;28;20029;-61
2021/08/03 08:55:05;;;;;;;5.70;1.80;;;;;;;23.89;49.10;97803.03;5029039;28;20035;-62
2021/08/03 08:57:30;;;;;;;4.95;2.40;;;;;;;23.86;49.82;97796.22;5026607;28;20144;-61
2021/08/03 08:59:59;;;;;;;3.15;1.70;;;;;;;24.20;49.76;97792.00;5028719;28;20124;-62
2021/08/03 09:02:38;;;;;;;3.85;1.90;;;;;;;24.72;48.76;97794.75;5030054;28;20045;-61
2021/08/03 09:05:04;;;;;;;2.58;1.63;;;;;;;25.99;45.52;97792.22;5026203;28;20057;-62
2021/08/03 09:07:30;;;;;;;5.85;1.80;;;;;;;27.04;44.83;97795.81;5026573;28;20048;-62
2021/08/03 09:10:00;;;;;;;4.18;1.90;;;;;;;26.41;44.73;97791.22;5029765;28;20052;-61
2021/08/03 09:12:34;;;;;;;3.95;1.70;;;;;;;26.78;43.86;97781.81;5025306;28;20047;-62
2021/08/03 09:14:59;;;;;;;3.45;1.65;;;;;;;26.52;44.58;97785.50;5026405;28;20033;-64
2021/08/03 09:17:29;;;;;;;3.15;1.70;;;;;;;26.42;44.67;97776.84;5028257;28;20043;-61
2021/08/03 09:19:56;;;;;;;5.72;1.83;;;;;;;26.12;45.72;97779.22;5025847;28;20024;-61
2021/08/03 09:22:28;;;;;;;2.60;1.60;;;;;;;26.02;45.76;97783.88;5026309;28;20154;-63
2021/08/03 09:25:15;;;;;;;3.10;1.50;;;;;;;25.77;47.42;97776.66;5026107;28;20033;-62
2021/08/03 09:27:44;;;;;;;2.30;1.50;;;;;;;25.10;49.57;97773.09;5029599;28;20049;-61
2021/08/03 09:30:27;;;;;;;4.07;1.65;;;;;;;25.39;47.87;97773.53;5030318;28;20128;-64
2021/08/03 09:32:52;;;;;;;2.92;1.52;;;;;;;25.97;45.97;97771.00;5039020;28;20399;-62
2021/08/03 09:35:22;;;;;;;3.63;1.50;;;;;;;26.33;45.69;97766.16;5031267;28;20525;-61
2021/08/03 09:37:49;;;;;;;2.90;1.60;;;;;;;25.54;47.18;97765.72;5031332;28;20021;-63
2021/08/03 09:40:25;;;;;;;2.53;1.40;;;;;;;25.79;47.23;97771.13;5031609;28;20029;-61
2021/08/03 09:43:05;;;;;;;2.75;1.42;;;;;;;26.32;44.10;97775.19;5046444;28;20036;-61
2021/08/03 09:45:35;;;;;;;2.65;1.40;;;;;;;27.11;42.42;97770.00;5029840;28;20040;-61
2021/08/03 09:48:09;;;;;;;2.53;1.40;;;;;;;26.32;43.63;97766.31;5029239;28;20056;-62
2021/08/03 09:51:12;;;;;;;2.75;1.50;;;;;;;26.52;43.04;97769.47;5030266;28;20037;-62
2021/08/03 09:53:50;;;;;;;2.13;1.40;;;;;;;26.70;43.34;97770.13;5026897;28;20025;-61
2021/08/03 09:56:26;;;;;;;2.30;1.50;;;;;;;26.10;44.51;97767.81;5029762;28;20053;-63
2021/08/03 09:59:02;;;;;;;3.38;1.50;;;;;;;23.56;48.67;97762.75;5032946;28;20032;-62
2021/08/03 10:01:35;;;;;;;5.18;1.90;;;;;;;24.65;46.80;97764.38;5029481;28;20037;-61
2021/08/03 10:04:03;;;;;;;2.05;1.38;;;;;;;25.34;44.83;97764.34;5031016;28;20036;-61
2021/08/03 10:06:30;;;;;;;2.42;1.40;;;;;;;25.29;45.93;97767.53;5030405;28;20476;-61
2021/08/03 10:08:55;;;;;;;2.47;1.52;;;;;;;26.11;44.10;97765.00;5031807;28;20087;-62
2021/08/03 10:11:22;;;;;;;2.17;1.50;;;;;;;25.50;46.25;97769.75;5030085;28;20033;-62
2021/08/03 10:13:49;;;;;;;2.38;1.50;;;;;;;24.68;46.50;97758.69;5028940;28;20035;-61
2021/08/03 10:16:16;;;;;;;3.20;1.40;;;;;;;24.72;46.55;97751.22;5029871;28;20442;-62
2021/08/03 10:18:44;;;;;;;2.38;1.45;;;;;;;25.28;45.85;97752.50;5027558;28;20112;-63
2021/08/03 10:21:18;;;;;;;3.22;1.58;;;;;;;24.79;46.14;97750.44;5029864;28;20037;-63
2021/08/03 10:23:45;;;;;;;2.85;1.80;;;;;;;24.69;46.83;97748.88;5028028;28;20058;-63
2021/08/03 10:26:14;;;;;;;2.80;1.60;;;;;;;25.30;46.34;97749.66;5029901;28;20037;-64
2021/08/03 10:28:40;;;;;;;4.93;1.60;;;;;;;25.49;45.20;97744.03;5029892;28;20498;-61
2021/08/03 10:31:35;;;;;;;2.80;1.33;;;;;;;25.25;47.07;97754.66;5028710;28;20124;-61
2021/08/03 10:34:00;;;;;;;2.88;1.55;;;;;;;25.16;47.05;97741.25;5029576;28;20517;-61
2021/08/03 10:36:39;;;;;;;2.70;1.40;;;;;;;24.81;47.82;97744.94;5036870;28;20334;-64
2021/08/03 10:39:09;;;;;;;2.50;1.27;;;;;;;24.94;46.63;97745.34;5028207;28;20116;-62
2021/08/03 10:41:59;;;;;;;2.80;1.30;;;;;;;25.38;46.02;97739.84;5030792;28;20044;-61
2021/08/03 10:44:39;;;;;;;3.20;1.40;;;;;;;25.14;45.50;97740.56;5042353;28;20028;-61
2021/08/03 10:47:04;;;;;;;2.20;1.40;;;;;;;24.42;46.36;97742.69;5027844;28;20052;-62
2021/08/03 10:49:58;;;;;;;5.90;1.38;;;;;;;25.19;44.24;97740.91;5029181;28;20026;-63
2021/08/03 10:52:49;;;;;;;2.42;1.38;;;;;;;24.57;45.02;97738.47;5027950;28;20044;-61
2021/08/03 10:55:40;;;;;;;2.28;1.48;;;;;;;24.41;45.31;97736.53;5025876;28;20116;-61
2021/08/03 10:58:08;;;;;;;2.13;1.33;;;;;;;24.42;46.45;97735.50;5029942;28;20483;-62
2021/08/03 11:00:40;;;;;;;1.98;1.20;;;;;;;23.61;46.90;97727.69;5045004;28;20124;-60
2021/08/03 11:03:34;;;;;;;2.88;1.40;;;;;;;24.48;46.08;97725.22;5027677;28;20059;-61
2021/08/03 11:06:05;;;;;;;2.75;1.40;;;;;;;24.01;47.16;97724.56;5028563;28;20661;-62
2021/08/03 11:08:34;;;;;;;2.85;1.40;;;;;;;24.05;45.76;97725.94;5028575;28;20526;-61
2021/08/03 11:11:05;;;;;;;3.08;1.30;;;;;;;23.81;46.53;97723.09;5027508;28;20072;-60
2021/08/03 11:13:49;;;;;;;2.42;1.40;;;;;;;23.80;47.85;97716.06;5025959;28;20028;-60
2021/08/03 11:16:21;;;;;;;2.55;1.52;;;;;;;24.15;47.06;97717.88;5025629;28;20388;-61
2021/08/03 11:18:50;;;;;;;2.40;1.40;;;;;;;24.07;47.87;97719.63;5024357;28;20021;-60
2021/08/03 11:21:22;;;;;;;3.90;1.40;;;;;;;24.60;46.72;97710.66;5028595;28;20048;-60
2021/08/03 11:24:00;;;;;;;2.72;1.50;;;;;;;24.37;47.03;97713.00;5029384;28;20086;-61
2021/08/03 11:26:30;;;;;;;3.47;1.50;;;;;;;23.42;49.11;97710.06;5026241;28;20169;-61
2021/08/03 11:29:10;;;;;;;3.38;1.50;;;;;;;23.80;48.43;97710.75;5028216;28;20029;-60
2021/08/03 11:31:41;;;;;;;4.05;1.55;;;;;;;24.74;47.00;97696.75;5029097;28;20048;-60
2021/08/03 11:34:07;;;;;;;2.13;1.30;;;;;;;25.43;45.04;97693.97;5028761;28;20029;-61
2021/08/03 11:36:35;;;;;;;3.60;1.60;;;;;;;23.98;48.34;97692.91;5027086;28;20045;-60
2021/08/03 11:39:18;;;;;;;4.00;1.60;;;;;;;24.99;46.69;97686.16;5029846;28;20037;-60
2021/08/03 11:41:51;;;;;;;6.07;1.70;;;;;;;24.82;47.06;97683.44;5027795;28;20494;-60